Time;durP1;ratioP1;P1;durP2;ratioP2;P2;SDS_P1;SDS_P2;PMS_P1;PMS_P2;Temp;Humidity;BMP_temperature;BMP_pressure;BME280_temperature;BME280_humidity;BME280_pressure;Samples;Min_cycle;Max_cycle;Signal;HPM_P1;HPM_P2
2023/03/08 00:00:19;;;;;;;36.50;18.83;;;;;;;;;;5025570;28;20493;-50
2023/03/08 00:02:45;;;;;;;34.70;17.90;;;;;;;;;;5027777;28;20022;-49
2023/03/08 00:05:10;;;;;;;38.70;18.45;;;;;;;;;;5028184;28;20484;-50
2023/03/08 00:07:36;;;;;;;36.75;19.42;;;;;;;;;;5027755;28;20033;-49
2023/03/08 00:10:01;;;;;;;35.15;19.85;;;;;;;;;;5027733;28;20033;-51
2023/03/08 00:12:27;;;;;;;41.92;20.27;;;;;;;;;;5028040;28;20013;-51
2023/03/08 00:14:52;;;;;;;37.05;18.63;;;;;;;;;;5027921;28;20028;-48
2023/03/08 00:17:18;;;;;;;32.90;17.55;;;;;;;;;;5028156;28;20037;-52
2023/03/08 00:19:43;;;;;;;35.63;17.25;;;;;;;;;;5027256;28;20021;-54
2023/03/08 00:22:09;;;;;;;33.17;16.42;;;;;;;;;;5027905;28;20079;-53
2023/03/08 00:24:34;;;;;;;32.28;16.95;;;;;;;;;;5027440;28;20029;-51
2023/03/08 00:27:00;;;;;;;34.15;15.85;;;;;;;;;;5027636;28;20080;-51
2023/03/08 00:29:25;;;;;;;29.40;16.10;;;;;;;;;;5027864;28;20025;-50
2023/03/08 00:31:50;;;;;;;32.58;16.45;;;;;;;;;;5027279;28;20022;-52
2023/03/08 00:34:16;;;;;;;34.53;15.45;;;;;;;;;;5027460;28;20040;-48
2023/03/08 00:36:41;;;;;;;31.10;16.08;;;;;;;;;;5027240;28;20028;-49
2023/03/08 00:39:07;;;;;;;38.42;15.52;;;;;;;;;;5027190;28;20443;-50
2023/03/08 00:41:32;;;;;;;27.85;15.57;;;;;;;;;;5026924;28;20057;-52
2023/03/08 00:43:58;;;;;;;30.23;15.35;;;;;;;;;;5025757;28;20400;-48
2023/03/08 00:46:23;;;;;;;34.90;16.90;;;;;;;;;;5027213;28;20029;-53
2023/03/08 00:48:49;;;;;;;28.60;15.38;;;;;;;;;;5027102;28;20024;-51
2023/03/08 00:51:15;;;;;;;30.10;15.18;;;;;;;;;;5026944;28;20122;-53
2023/03/08 00:53:41;;;;;;;27.00;14.02;;;;;;;;;;5027247;28;20576;-53
2023/03/08 00:56:06;;;;;;;34.70;15.63;;;;;;;;;;5027167;28;20133;-53
2023/03/08 00:58:32;;;;;;;31.55;15.13;;;;;;;;;;5027318;28;20018;-51
2023/03/08 01:00:57;;;;;;;33.03;15.32;;;;;;;;;;5027355;28;20025;-50
2023/03/08 01:03:23;;;;;;;29.75;14.35;;;;;;;;;;5027058;28;20022;-48
2023/03/08 01:05:52;;;;;;;33.47;15.07;;;;;;;;;;5026980;28;20053;-50
2023/03/08 01:08:19;;;;;;;29.08;14.60;;;;;;;;;;5026787;28;20017;-50
2023/03/08 01:10:48;;;;;;;29.70;14.60;;;;;;;;;;5027058;28;20033;-49
2023/03/08 01:13:13;;;;;;;27.88;14.73;;;;;;;;;;5026710;28;20022;-49
2023/03/08 01:15:38;;;;;;;26.40;14.77;;;;;;;;;;5026087;28;20022;-49
2023/03/08 01:18:04;;;;;;;30.45;15.00;;;;;;;;;;5026974;28;20033;-48
2023/03/08 01:20:29;;;;;;;30.45;14.05;;;;;;;;;;5023892;28;20034;-49
2023/03/08 01:22:55;;;;;;;29.65;15.48;;;;;;;;;;5026495;28;20174;-51
2023/03/08 01:25:20;;;;;;;31.58;14.30;;;;;;;;;;5026515;28;20025;-48
2023/03/08 01:27:46;;;;;;;29.30;13.57;;;;;;;;;;5026336;28;20052;-53
2023/03/08 01:30:11;;;;;;;29.73;13.27;;;;;;;;;;5026108;28;20033;-51
2023/03/08 01:32:36;;;;;;;27.35;13.25;;;;;;;;;;5007048;28;20034;-48
2023/03/08 01:35:03;;;;;;;23.50;12.02;;;;;;;;;;5026200;28;20021;-50
2023/03/08 01:37:29;;;;;;;24.10;11.63;;;;;;;;;;5026331;28;20096;-48
2023/03/08 01:39:55;;;;;;;23.30;12.18;;;;;;;;;;5026311;28;20021;-52
2023/03/08 01:42:20;;;;;;;24.75;10.85;;;;;;;;;;5026194;28;20087;-50
2023/03/08 01:44:56;;;;;;;24.25;11.10;;;;;;;;;;5026015;28;20080;-54
2023/03/08 01:47:31;;;;;;;19.65;10.75;;;;;;;;;;5026027;28;20069;-52
2023/03/08 01:49:58;;;;;;;19.95;9.50;;;;;;;;;;5024790;28;20025;-51
2023/03/08 01:52:34;;;;;;;19.48;9.20;;;;;;;;;;5026354;28;20065;-50
2023/03/08 01:55:02;;;;;;;19.63;9.13;;;;;;;;;;5026096;28;20053;-50
2023/03/08 01:57:32;;;;;;;20.33;8.85;;;;;;;;;;5026262;28;20033;-50
2023/03/08 02:00:02;;;;;;;18.00;8.40;;;;;;;;;;5025944;28;20049;-54
2023/03/08 02:02:30;;;;;;;16.38;8.30;;;;;;;;;;5026209;28;20037;-52
2023/03/08 02:04:56;;;;;;;15.85;7.32;;;;;;;;;;5025881;28;20397;-52
2023/03/08 02:07:21;;;;;;;17.52;7.80;;;;;;;;;;5025761;28;20132;-51
2023/03/08 02:09:47;;;;;;;15.15;7.22;;;;;;;;;;5023302;28;20026;-49
2023/03/08 02:12:13;;;;;;;14.35;6.90;;;;;;;;;;5025726;28;20049;-51
2023/03/08 02:14:40;;;;;;;19.40;7.35;;;;;;;;;;5025730;28;20123;-55
2023/03/08 02:17:05;;;;;;;15.88;6.72;;;;;;;;;;5025646;28;20029;-55
2023/03/08 02:19:43;;;;;;;15.02;6.75;;;;;;;;;;5025627;28;20025;-48
2023/03/08 02:22:13;;;;;;;18.77;7.95;;;;;;;;;;5025383;28;20025;-50
2023/03/08 02:24:38;;;;;;;14.02;7.07;;;;;;;;;;5025776;28;20036;-50
2023/03/08 02:27:06;;;;;;;10.60;6.38;;;;;;;;;;5025365;28;20029;-50
2023/03/08 02:29:31;;;;;;;13.38;6.95;;;;;;;;;;5025869;28;20022;-52
2023/03/08 02:31:56;;;;;;;16.75;6.70;;;;;;;;;;5025463;28;20032;-51
2023/03/08 02:34:22;;;;;;;16.38;7.22;;;;;;;;;;5025785;28;20429;-49
2023/03/08 02:36:47;;;;;;;12.20;7.25;;;;;;;;;;5025607;28;20117;-50
2023/03/08 02:39:12;;;;;;;14.45;7.63;;;;;;;;;;5024363;28;20353;-49
2023/03/08 02:41:38;;;;;;;10.95;6.88;;;;;;;;;;5027350;28;20028;-53
2023/03/08 02:44:03;;;;;;;18.45;7.80;;;;;;;;;;5025762;28;20045;-52
2023/03/08 02:46:28;;;;;;;17.70;7.75;;;;;;;;;;5027067;28;20029;-49
2023/03/08 02:48:54;;;;;;;14.63;7.95;;;;;;;;;;5026659;28;20075;-49
2023/03/08 02:51:19;;;;;;;18.55;9.07;;;;;;;;;;5026623;28;20454;-53
2023/03/08 02:53:44;;;;;;;16.95;9.50;;;;;;;;;;5026287;28;20026;-53
2023/03/08 02:56:10;;;;;;;22.98;9.18;;;;;;;;;;5026722;28;20068;-52
2023/03/08 02:58:35;;;;;;;14.63;8.88;;;;;;;;;;5026897;28;20509;-49
2023/03/08 03:01:00;;;;;;;24.10;8.75;;;;;;;;;;5027369;28;20021;-51
2023/03/08 03:03:25;;;;;;;21.00;9.07;;;;;;;;;;5027934;28;20394;-47
2023/03/08 03:05:51;;;;;;;14.88;8.82;;;;;;;;;;5027464;28;20017;-48
2023/03/08 03:08:16;;;;;;;18.30;9.18;;;;;;;;;;5027468;28;20468;-50
2023/03/08 03:10:41;;;;;;;17.15;8.60;;;;;;;;;;5026820;28;20439;-50
2023/03/08 03:13:07;;;;;;;20.63;9.40;;;;;;;;;;5028121;28;20022;-49
2023/03/08 03:15:32;;;;;;;19.20;9.20;;;;;;;;;;5027769;28;20025;-48
2023/03/08 03:17:58;;;;;;;17.95;9.38;;;;;;;;;;5026008;28;20025;-49
2023/03/08 03:20:23;;;;;;;20.33;9.27;;;;;;;;;;5027472;28;20034;-51
2023/03/08 03:22:49;;;;;;;17.25;9.15;;;;;;;;;;5027468;28;20133;-51
2023/03/08 03:25:14;;;;;;;15.25;8.77;;;;;;;;;;5026294;28;20465;-52
2023/03/08 03:27:39;;;;;;;15.80;9.15;;;;;;;;;;5024773;28;20037;-50
2023/03/08 03:30:06;;;;;;;16.70;8.52;;;;;;;;;;5025518;28;20029;-48
2023/03/08 03:32:31;;;;;;;20.45;9.18;;;;;;;;;;5025305;28;20130;-50
2023/03/08 03:34:57;;;;;;;14.88;8.57;;;;;;;;;;5025462;28;20155;-49
2023/03/08 03:37:22;;;;;;;18.48;9.65;;;;;;;;;;5025310;28;20067;-51
2023/03/08 03:39:47;;;;;;;17.92;9.30;;;;;;;;;;5026157;28;20108;-50
2023/03/08 03:42:13;;;;;;;16.23;9.55;;;;;;;;;;5028954;28;20026;-52
2023/03/08 03:44:38;;;;;;;20.67;10.43;;;;;;;;;;5029171;28;20499;-50
2023/03/08 03:47:04;;;;;;;22.33;11.25;;;;;;;;;;5028943;28;20029;-52
2023/03/08 03:49:29;;;;;;;23.08;10.30;;;;;;;;;;5031133;28;20018;-52
2023/03/08 03:51:54;;;;;;;28.02;11.23;;;;;;;;;;5031010;28;20028;-52
2023/03/08 03:54:20;;;;;;;22.15;10.93;;;;;;;;;;5031275;28;20072;-51
2023/03/08 03:56:45;;;;;;;25.08;12.10;;;;;;;;;;5030981;28;20170;-53
2023/03/08 03:59:10;;;;;;;26.15;12.00;;;;;;;;;;5030921;28;20388;-49
2023/03/08 04:01:36;;;;;;;24.92;12.52;;;;;;;;;;5032736;28;20021;-53
2023/03/08 04:04:01;;;;;;;22.60;11.35;;;;;;;;;;5034832;28;20029;-49
2023/03/08 04:06:31;;;;;;;25.13;12.05;;;;;;;;;;5033253;28;20034;-52
2023/03/08 04:08:57;;;;;;;28.30;12.43;;;;;;;;;;5031662;28;20092;-51
2023/03/08 04:11:24;;;;;;;22.95;11.52;;;;;;;;;;5031601;28;20034;-50
2023/03/08 04:13:49;;;;;;;26.10;12.13;;;;;;;;;;5032617;28;20049;-52
2023/03/08 04:16:25;;;;;;;20.65;11.63;;;;;;;;;;5033102;28;20500;-50
2023/03/08 04:18:54;;;;;;;24.75;12.10;;;;;;;;;;5033057;28;20022;-52
2023/03/08 04:21:19;;;;;;;;;;;;;;;;;;5032543;28;20021;-50
2023/03/08 04:23:45;;;;;;;32.67;13.10;;;;;;;;;;5032332;28;20551;-52
2023/03/08 04:26:12;;;;;;;28.48;13.10;;;;;;;;;;5031907;28;20021;-52
2023/03/08 04:28:37;;;;;;;30.55;15.35;;;;;;;;;;5031563;28;20103;-51
2023/03/08 04:31:16;;;;;;;22.67;12.18;;;;;;;;;;5028100;28;20038;-50
2023/03/08 04:33:41;;;;;;;26.50;12.65;;;;;;;;;;5029367;28;20121;-54
2023/03/08 04:36:07;;;;;;;25.33;12.77;;;;;;;;;;5029497;28;20565;-54
2023/03/08 04:38:33;;;;;;;29.38;12.93;;;;;;;;;;5029642;28;20083;-54
2023/03/08 04:41:01;;;;;;;30.42;13.18;;;;;;;;;;5030057;28;20028;-53
2023/03/08 04:43:30;;;;;;;28.63;14.50;;;;;;;;;;5030148;28;20029;-54
2023/03/08 04:45:55;;;;;;;31.30;12.20;;;;;;;;;;5029598;28;20048;-51
2023/03/08 04:48:20;;;;;;;33.70;12.75;;;;;;;;;;5029261;28;20481;-52
2023/03/08 04:50:53;;;;;;;22.90;13.02;;;;;;;;;;5028613;28;20571;-48
2023/03/08 04:53:18;;;;;;;25.73;11.90;;;;;;;;;;5028444;28;20099;-52
2023/03/08 04:55:43;;;;;;;29.10;14.10;;;;;;;;;;5028719;28;20052;-50
2023/03/08 04:58:09;;;;;;;29.90;13.35;;;;;;;;;;5029018;28;20021;-49
2023/03/08 05:00:34;;;;;;;60.05;23.65;;;;;;;;;;5028243;28;20033;-52
2023/03/08 05:02:59;;;;;;;50.63;21.27;;;;;;;;;;5027352;28;20446;-50
2023/03/08 05:05:25;;;;;;;57.35;18.08;;;;;;;;;;5027046;28;20481;-54
2023/03/08 05:07:50;;;;;;;29.75;14.57;;;;;;;;;;5027227;28;20030;-52
2023/03/08 05:10:15;;;;;;;32.42;14.73;;;;;;;;;;5027140;28;20017;-49
2023/03/08 05:12:40;;;;;;;31.80;14.55;;;;;;;;;;5027138;28;20512;-53
2023/03/08 05:15:06;;;;;;;31.00;13.75;;;;;;;;;;5026850;28;20360;-50
2023/03/08 05:17:31;;;;;;;35.95;14.30;;;;;;;;;;5027237;28;20035;-53
2023/03/08 05:19:57;;;;;;;39.67;16.73;;;;;;;;;;5026408;28;20148;-53
2023/03/08 05:22:22;;;;;;;30.77;15.57;;;;;;;;;;5026924;28;20484;-51
2023/03/08 05:24:47;;;;;;;32.40;16.15;;;;;;;;;;5026747;28;20401;-52
2023/03/08 05:27:12;;;;;;;30.70;14.52;;;;;;;;;;5028060;28;20064;-50
2023/03/08 05:29:38;;;;;;;32.33;13.20;;;;;;;;;;5026775;28;20025;-52
2023/03/08 05:32:03;;;;;;;26.75;13.43;;;;;;;;;;5026510;28;20017;-51
2023/03/08 05:34:29;;;;;;;30.73;13.85;;;;;;;;;;5026304;28;20179;-50
2023/03/08 05:36:54;;;;;;;32.15;12.95;;;;;;;;;;5026721;28;20574;-51
2023/03/08 05:39:19;;;;;;;29.63;13.30;;;;;;;;;;5007282;28;20511;-53
2023/03/08 05:41:45;;;;;;;29.27;15.13;;;;;;;;;;5025942;28;20172;-49
2023/03/08 05:44:10;;;;;;;35.60;14.45;;;;;;;;;;5026394;28;20026;-49
2023/03/08 05:46:38;;;;;;;31.30;13.60;;;;;;;;;;5026015;28;20045;-51
2023/03/08 05:49:06;;;;;;;22.98;12.15;;;;;;;;;;5026020;28;20029;-50
2023/03/08 05:51:32;;;;;;;25.17;12.25;;;;;;;;;;5025930;28;20032;-48
2023/03/08 05:53:57;;;;;;;29.73;12.55;;;;;;;;;;5025843;28;20064;-51
2023/03/08 05:56:23;;;;;;;26.15;12.23;;;;;;;;;;5026335;28;20068;-49
2023/03/08 05:58:48;;;;;;;25.27;13.05;;;;;;;;;;5026239;28;20021;-54
2023/03/08 06:01:15;;;;;;;26.73;12.48;;;;;;;;;;5025790;28;20476;-52
2023/03/08 06:03:41;;;;;;;24.60;12.50;;;;;;;;;;5025764;28;20361;-50
2023/03/08 06:06:06;;;;;;;29.05;13.15;;;;;;;;;;5026121;28;20028;-49
2023/03/08 06:08:31;;;;;;;29.70;13.23;;;;;;;;;;5024695;28;20267;-51
2023/03/08 06:10:57;;;;;;;29.13;12.57;;;;;;;;;;5026046;28;20484;-51
2023/03/08 06:13:22;;;;;;;24.40;12.57;;;;;;;;;;5025541;28;20032;-53
2023/03/08 06:15:47;;;;;;;31.20;12.07;;;;;;;;;;5026247;28;20025;-54
2023/03/08 06:18:13;;;;;;;27.38;13.35;;;;;;;;;;5025063;28;20013;-54
2023/03/08 06:20:38;;;;;;;27.17;12.70;;;;;;;;;;5025606;28;20032;-50
2023/03/08 06:23:03;;;;;;;35.25;12.85;;;;;;;;;;5006671;28;20072;-52
2023/03/08 06:25:29;;;;;;;30.50;12.55;;;;;;;;;;5025537;28;20424;-53
2023/03/08 06:27:54;;;;;;;21.75;12.48;;;;;;;;;;5025271;28;20170;-50
2023/03/08 06:30:19;;;;;;;28.30;12.55;;;;;;;;;;5025516;28;20084;-51
2023/03/08 06:32:45;;;;;;;28.00;13.63;;;;;;;;;;5022907;28;20112;-51
2023/03/08 06:35:10;;;;;;;33.38;13.52;;;;;;;;;;5025247;28;20389;-51
2023/03/08 06:37:36;;;;;;;35.33;13.90;;;;;;;;;;5024312;28;20021;-52
2023/03/08 06:40:02;;;;;;;28.60;12.73;;;;;;;;;;5033975;28;20031;-52
2023/03/08 06:42:27;;;;;;;33.65;13.25;;;;;;;;;;5035361;28;20048;-49
2023/03/08 06:44:53;;;;;;;27.42;11.88;;;;;;;;;;5027808;28;20052;-53
2023/03/08 06:47:18;;;;;;;28.35;13.75;;;;;;;;;;5045280;28;20384;-51
2023/03/08 06:49:43;;;;;;;24.98;13.38;;;;;;;;;;5038568;28;20083;-52
2023/03/08 06:52:09;;;;;;;30.08;12.50;;;;;;;;;;5025124;28;20444;-52
2023/03/08 06:54:34;;;;;;;29.48;12.20;;;;;;;;;;5025050;28;20052;-51
2023/03/08 06:56:59;;;;;;;30.27;13.18;;;;;;;;;;5025389;28;20033;-54
2023/03/08 06:59:24;;;;;;;27.52;12.25;;;;;;;;;;5024737;28;20032;-50
2023/03/08 07:01:50;;;;;;;24.65;13.07;;;;;;;;;;5044964;28;20020;-50
2023/03/08 07:04:17;;;;;;;20.70;11.38;;;;;;;;;;5043293;28;20432;-51
2023/03/08 07:06:42;;;;;;;26.63;12.15;;;;;;;;;;5017032;28;20033;-46
2023/03/08 07:09:08;;;;;;;29.50;12.32;;;;;;;;;;5032830;28;20415;-49
2023/03/08 07:11:33;;;;;;;19.73;10.43;;;;;;;;;;5028029;28;20021;-50
2023/03/08 07:13:58;;;;;;;24.73;11.25;;;;;;;;;;5024155;28;20982;-50
2023/03/08 07:16:24;;;;;;;320.35;22.33;;;;;;;;;;5022215;28;20679;-49
2023/03/08 07:18:49;;;;;;;25.42;12.02;;;;;;;;;;5018503;28;20053;-50
2023/03/08 07:21:14;;;;;;;22.45;10.40;;;;;;;;;;5024394;28;20457;-52
2023/03/08 07:23:40;;;;;;;31.42;11.70;;;;;;;;;;5021534;28;20108;-50
2023/03/08 07:26:05;;;;;;;26.00;11.60;;;;;;;;;;5018871;28;20025;-56
2023/03/08 07:28:31;;;;;;;23.27;11.05;;;;;;;;;;5024997;28;20025;-56
2023/03/08 07:30:56;;;;;;;24.67;10.68;;;;;;;;;;5020147;28;20482;-55
2023/03/08 07:33:21;;;;;;;24.50;11.30;;;;;;;;;;5023652;28;20037;-52
2023/03/08 07:35:47;;;;;;;26.95;11.43;;;;;;;;;;5021041;28;22311;-54
2023/03/08 07:38:13;;;;;;;67.03;19.95;;;;;;;;;;5017212;28;21146;-51
2023/03/08 07:40:38;;;;;;;25.52;11.25;;;;;;;;;;5017518;28;20057;-50
2023/03/08 07:43:03;;;;;;;23.80;10.52;;;;;;;;;;5022586;28;20076;-51
2023/03/08 07:45:29;;;;;;;19.52;10.20;;;;;;;;;;5027254;28;20036;-48
2023/03/08 07:47:54;;;;;;;23.63;10.57;;;;;;;;;;5026439;28;20065;-49
2023/03/08 07:50:20;;;;;;;120.03;44.00;;;;;;;;;;5027501;28;20480;-53
2023/03/08 07:52:46;;;;;;;22.60;10.68;;;;;;;;;;5022563;28;20042;-49
2023/03/08 07:55:11;;;;;;;23.58;10.15;;;;;;;;;;5023837;28;20050;-50
2023/03/08 07:57:37;;;;;;;20.13;9.48;;;;;;;;;;5026047;28;20033;-53
2023/03/08 08:00:06;;;;;;;19.55;9.55;;;;;;;;;;5023265;28;20057;-54
2023/03/08 08:02:31;;;;;;;;;;;;;;;;;;5023302;28;20034;-51
2023/03/08 08:04:57;;;;;;;19.38;8.52;;;;;;;;;;5018486;28;19908;-52
2023/03/08 08:07:22;;;;;;;18.73;6.55;;;;;;;;;;5024037;28;20091;-54
2023/03/08 08:09:47;;;;;;;20.20;9.70;;;;;;;;;;5026133;28;20057;-53
2023/03/08 08:12:12;;;;;;;20.50;9.20;;;;;;;;;;5024295;28;21241;-52
2023/03/08 08:14:38;;;;;;;21.25;9.23;;;;;;;;;;5017919;28;20029;-52
2023/03/08 08:17:03;;;;;;;17.77;8.52;;;;;;;;;;5025006;28;20124;-51
2023/03/08 08:19:30;;;;;;;20.58;9.80;;;;;;;;;;5021561;28;20113;-53
2023/03/08 08:21:56;;;;;;;42.28;18.58;;;;;;;;;;5021261;28;20053;-51
2023/03/08 08:24:21;;;;;;;20.02;9.57;;;;;;;;;;5021667;28;20068;-49
2023/03/08 08:26:46;;;;;;;20.70;9.13;;;;;;;;;;5025813;28;20141;-53
2023/03/08 08:29:12;;;;;;;19.10;9.75;;;;;;;;;;5024199;28;20044;-52
2023/03/08 08:31:37;;;;;;;23.48;9.73;;;;;;;;;;5020487;28;24279;-52
2023/03/08 08:34:02;;;;;;;18.48;9.02;;;;;;;;;;5021904;28;20056;-54
2023/03/08 08:36:27;;;;;;;18.05;8.80;;;;;;;;;;5025983;28;20373;-48
2023/03/08 08:38:53;;;;;;;16.45;8.48;;;;;;;;;;5005038;28;20030;-53
2023/03/08 08:41:19;;;;;;;19.10;8.90;;;;;;;;;;5017727;28;20018;-48
2023/03/08 08:43:45;;;;;;;18.45;10.13;;;;;;;;;;5022919;28;20061;-51
2023/03/08 08:46:11;;;;;;;22.25;9.75;;;;;;;;;;5020291;28;20049;-53
2023/03/08 08:48:37;;;;;;;17.27;8.98;;;;;;;;;;5026196;28;20025;-52
2023/03/08 08:51:03;;;;;;;18.25;9.20;;;;;;;;;;5024491;28;20119;-52
2023/03/08 08:53:29;;;;;;;18.25;8.68;;;;;;;;;;5025751;28;20016;-49
2023/03/08 08:55:54;;;;;;;18.42;8.00;;;;;;;;;;5020331;28;20045;-52
2023/03/08 08:58:19;;;;;;;17.95;8.60;;;;;;;;;;5024660;28;20034;-51
2023/03/08 09:00:45;;;;;;;16.75;8.75;;;;;;;;;;5024713;28;20033;-52
2023/03/08 09:03:11;;;;;;;16.38;8.23;;;;;;;;;;5021544;28;20346;-52
2023/03/08 09:05:37;;;;;;;19.35;7.97;;;;;;;;;;5022770;28;20087;-52
2023/03/08 09:08:03;;;;;;;17.80;7.70;;;;;;;;;;5026193;28;20095;-55
2023/03/08 09:10:29;;;;;;;13.77;6.85;;;;;;;;;;5024880;28;20657;-53
2023/03/08 09:12:54;;;;;;;16.60;9.38;;;;;;;;;;5025195;28;20093;-50
2023/03/08 09:15:21;;;;;;;17.30;8.30;;;;;;;;;;5025504;28;20068;-53
2023/03/08 09:17:47;;;;;;;16.80;8.82;;;;;;;;;;5025819;28;20449;-53
2023/03/08 09:20:13;;;;;;;16.67;8.05;;;;;;;;;;5036000;28;20044;-52
2023/03/08 09:22:39;;;;;;;18.55;8.02;;;;;;;;;;5032317;28;20049;-51
2023/03/08 09:25:05;;;;;;;16.05;8.00;;;;;;;;;;5022823;28;20100;-51
2023/03/08 09:27:30;;;;;;;20.42;7.93;;;;;;;;;;5025890;28;20036;-53
2023/03/08 09:29:57;;;;;;;18.67;8.38;;;;;;;;;;5025530;28;20029;-54
2023/03/08 09:32:22;;;;;;;13.73;7.78;;;;;;;;;;5025626;28;20477;-51
2023/03/08 09:34:47;;;;;;;15.32;8.18;;;;;;;;;;5024636;28;20033;-55
2023/03/08 09:37:12;;;;;;;18.67;8.75;;;;;;;;;;5024569;28;20046;-52
2023/03/08 09:39:39;;;;;;;16.05;7.95;;;;;;;;;;5025046;28;20022;-53
2023/03/08 09:42:05;;;;;;;14.90;7.57;;;;;;;;;;5034270;28;20060;-52
2023/03/08 09:44:49;;;;;;;16.83;8.70;;;;;;;;;;5026014;28;20098;-49
2023/03/08 09:47:34;;;;;;;18.55;8.23;;;;;;;;;;5020548;28;20072;-52
2023/03/08 09:50:23;;;;;;;20.50;8.98;;;;;;;;;;5001333;28;20030;-54
2023/03/08 09:52:51;;;;;;;17.60;9.35;;;;;;;;;;4926989;29;20043;-50
2023/03/08 09:55:34;;;;;;;25.80;9.43;;;;;;;;;;4927885;28;20146;-50
2023/03/08 09:58:18;;;;;;;19.00;8.63;;;;;;;;;;4925702;28;20285;-51
2023/03/08 10:00:43;;;;;;;26.15;9.30;;;;;;;;;;4925773;29;20035;-51
2023/03/08 10:03:17;;;;;;;17.50;8.88;;;;;;;;;;4917742;29;20122;-51
2023/03/08 10:05:46;;;;;;;20.08;8.88;;;;;;;;;;4925776;29;20192;-52
2023/03/08 10:08:11;;;;;;;100.32;44.72;;;;;;;;;;4927505;28;20050;-50
2023/03/08 10:10:45;;;;;;;15.18;8.70;;;;;;;;;;4927089;29;20044;-52
2023/03/08 10:13:26;;;;;;;26.95;9.13;;;;;;;;;;4927311;28;20027;-52
2023/03/08 10:15:54;;;;;;;111.22;12.57;;;;;;;;;;4935182;28;21691;-50
2023/03/08 10:18:30;;;;;;;63.25;9.63;;;;;;;;;;4943401;28;20111;-50
2023/03/08 10:20:58;;;;;;;15.23;8.18;;;;;;;;;;4927868;29;20646;-52
2023/03/08 10:23:24;;;;;;;17.10;7.97;;;;;;;;;;4926385;28;20058;-51
2023/03/08 10:25:50;;;;;;;20.33;9.27;;;;;;;;;;4935393;29;20028;-50
2023/03/08 10:28:19;;;;;;;18.83;10.02;;;;;;;;;;4943240;28;20047;-47
2023/03/08 10:30:44;;;;;;;21.45;9.10;;;;;;;;;;4976574;28;20036;-50
2023/03/08 10:33:11;;;;;;;17.25;9.43;;;;;;;;;;5020190;28;20037;-48
2023/03/08 10:35:48;;;;;;;15.68;8.52;;;;;;;;;;5024494;28;20482;-49
2023/03/08 10:38:14;;;;;;;14.77;8.65;;;;;;;;;;5024949;28;20064;-50
2023/03/08 10:40:39;;;;;;;18.02;9.15;;;;;;;;;;5026075;28;20033;-50
2023/03/08 10:43:05;;;;;;;16.83;9.02;;;;;;;;;;5027856;28;20036;-48
2023/03/08 10:45:31;;;;;;;17.33;8.20;;;;;;;;;;5032774;28;20024;-47
2023/03/08 10:47:59;;;;;;;14.73;7.95;;;;;;;;;;5026519;28;20025;-50
2023/03/08 10:50:29;;;;;;;14.52;7.68;;;;;;;;;;5029624;28;20377;-49
2023/03/08 10:52:54;;;;;;;18.08;8.25;;;;;;;;;;5029716;28;20025;-51
2023/03/08 10:55:25;;;;;;;16.55;8.88;;;;;;;;;;5029388;28;20074;-49
2023/03/08 10:57:51;;;;;;;15.45;8.40;;;;;;;;;;5029731;28;20033;-49
2023/03/08 11:00:17;;;;;;;14.85;8.27;;;;;;;;;;5030389;28;20071;-51
2023/03/08 11:02:42;;;;;;;18.00;7.60;;;;;;;;;;5032706;28;20127;-47
2023/03/08 11:05:16;;;;;;;15.40;8.43;;;;;;;;;;5030108;28;20048;-49
2023/03/08 11:07:48;;;;;;;16.45;8.55;;;;;;;;;;5030545;28;20041;-49
2023/03/08 11:10:15;;;;;;;19.05;8.45;;;;;;;;;;5030430;28;20040;-50
2023/03/08 11:12:40;;;;;;;21.02;8.00;;;;;;;;;;5032538;28;20029;-47
2023/03/08 11:15:15;;;;;;;15.75;8.48;;;;;;;;;;5028744;28;20107;-50
2023/03/08 11:18:10;;;;;;;14.50;7.38;;;;;;;;;;5031185;28;20476;-51
2023/03/08 11:20:40;;;;;;;15.85;8.25;;;;;;;;;;4995974;28;20080;-51
2023/03/08 11:23:14;;;;;;;18.85;7.72;;;;;;;;;;4998627;28;20021;-53
2023/03/08 11:25:59;;;;;;;13.05;7.55;;;;;;;;;;4998936;28;20041;-50
2023/03/08 11:28:30;;;;;;;16.73;8.05;;;;;;;;;;4999544;28;20056;-49
2023/03/08 11:31:07;;;;;;;12.90;7.95;;;;;;;;;;4993851;28;20126;-48
2023/03/08 11:33:45;;;;;;;16.85;8.20;;;;;;;;;;4994991;28;20029;-50
2023/03/08 11:36:29;;;;;;;18.42;7.40;;;;;;;;;;4999420;28;20117;-52
2023/03/08 11:39:00;;;;;;;17.45;7.53;;;;;;;;;;4994253;28;20044;-51
2023/03/08 11:41:26;;;;;;;20.33;7.93;;;;;;;;;;4991416;28;20069;-53
2023/03/08 11:44:03;;;;;;;12.35;7.07;;;;;;;;;;4986090;28;20023;-50
2023/03/08 11:46:41;;;;;;;14.02;6.90;;;;;;;;;;5000056;28;20053;-49
2023/03/08 11:49:15;;;;;;;11.70;6.95;;;;;;;;;;5002942;28;20114;-52
2023/03/08 11:51:50;;;;;;;13.82;7.10;;;;;;;;;;4998073;28;20049;-52
2023/03/08 11:54:21;;;;;;;14.60;6.40;;;;;;;;;;4997089;28;20041;-51
2023/03/08 11:56:50;;;;;;;13.82;7.15;;;;;;;;;;5011751;28;20053;-50
2023/03/08 11:59:18;;;;;;;11.77;6.38;;;;;;;;;;5027148;28;20428;-50
2023/03/08 12:01:43;;;;;;;24.77;6.50;;;;;;;;;;5028399;28;20125;-50
2023/03/08 12:04:12;;;;;;;12.63;6.05;;;;;;;;;;5028139;28;20108;-53
2023/03/08 12:06:39;;;;;;;13.20;6.43;;;;;;;;;;5028127;28;20034;-52
2023/03/08 12:09:11;;;;;;;19.15;7.15;;;;;;;;;;5028261;28;20931;-53
2023/03/08 12:11:39;;;;;;;12.35;6.35;;;;;;;;;;5008298;28;20049;-51
2023/03/08 12:14:12;;;;;;;14.82;6.65;;;;;;;;;;5020070;28;20029;-51
2023/03/08 12:16:46;;;;;;;15.30;7.18;;;;;;;;;;5027873;28;20047;-49
2023/03/08 12:19:30;;;;;;;12.35;6.25;;;;;;;;;;5027001;28;20040;-49
2023/03/08 12:21:55;;;;;;;15.88;6.32;;;;;;;;;;5027826;28;20026;-52
2023/03/08 12:24:23;;;;;;;12.98;5.55;;;;;;;;;;5027657;28;20052;-48
2023/03/08 12:27:11;;;;;;;12.23;6.00;;;;;;;;;;5027875;28;20034;-49
2023/03/08 12:29:40;;;;;;;19.27;10.05;;;;;;;;;;5026507;28;20096;-54
2023/03/08 12:32:05;;;;;;;;;;;;;;;;;;5027467;28;20022;-49
2023/03/08 12:34:44;;;;;;;11.23;5.33;;;;;;;;;;5026316;28;19920;-50
2023/03/08 12:37:23;;;;;;;14.50;5.63;;;;;;;;;;5026135;28;20485;-51
2023/03/08 12:39:56;;;;;;;11.95;6.25;;;;;;;;;;5027215;28;20060;-50
2023/03/08 12:42:37;;;;;;;9.48;5.25;;;;;;;;;;5027414;28;20025;-52
2023/03/08 12:45:09;;;;;;;13.25;6.13;;;;;;;;;;5026612;28;20029;-52
2023/03/08 12:47:34;;;;;;;9.35;4.78;;;;;;;;;;5027531;28;20469;-54
2023/03/08 12:50:07;;;;;;;13.55;5.43;;;;;;;;;;5026644;28;20034;-51
2023/03/08 12:52:34;;;;;;;13.73;5.53;;;;;;;;;;5027735;28;20025;-54
2023/03/08 12:54:59;;;;;;;12.15;5.20;;;;;;;;;;5026491;28;20049;-55
2023/03/08 12:57:27;;;;;;;18.53;8.13;;;;;;;;;;5026706;28;20049;-52
2023/03/08 12:59:57;;;;;;;50.30;20.77;;;;;;;;;;5023673;28;20326;-50
2023/03/08 13:02:24;;;;;;;14.80;6.05;;;;;;;;;;5028010;28;20251;-52
2023/03/08 13:05:00;;;;;;;10.93;5.78;;;;;;;;;;5027181;28;20029;-50
2023/03/08 13:07:30;;;;;;;9.52;5.18;;;;;;;;;;5026646;28;20072;-51
2023/03/08 13:10:22;;;;;;;9.95;4.90;;;;;;;;;;5023931;28;20025;-51
2023/03/08 13:12:47;;;;;;;13.02;5.07;;;;;;;;;;4979551;28;20470;-48
2023/03/08 13:15:12;;;;;;;11.40;5.05;;;;;;;;;;4980839;28;20085;-51
2023/03/08 13:17:47;;;;;;;17.25;7.45;;;;;;;;;;4984689;28;20100;-49
2023/03/08 13:20:24;;;;;;;11.90;4.32;;;;;;;;;;4986620;28;20385;-54
2023/03/08 13:22:55;;;;;;;15.82;5.47;;;;;;;;;;4979208;28;20030;-54
2023/03/08 13:25:39;;;;;;;44.63;18.10;;;;;;;;;;4975570;28;20026;-53
2023/03/08 13:28:12;;;;;;;10.18;4.45;;;;;;;;;;4980043;28;20062;-52
2023/03/08 13:30:42;;;;;;;13.40;4.43;;;;;;;;;;4990728;28;20072;-52
2023/03/08 13:33:12;;;;;;;9.85;5.15;;;;;;;;;;4987766;28;20030;-52
2023/03/08 13:35:37;;;;;;;;;;;;;;;;;;4978960;28;20049;-51
2023/03/08 13:38:02;;;;;;;10.23;4.30;;;;;;;;;;4985881;28;19950;-53
2023/03/08 13:40:29;;;;;;;10.02;4.90;;;;;;;;;;4983460;28;20493;-49
2023/03/08 13:42:56;;;;;;;13.38;4.88;;;;;;;;;;4985652;28;20113;-50
2023/03/08 13:45:21;;;;;;;8.82;4.07;;;;;;;;;;4974470;28;20109;-48
2023/03/08 13:47:47;;;;;;;13.43;4.38;;;;;;;;;;5000441;28;20136;-48
2023/03/08 13:50:17;;;;;;;10.95;4.15;;;;;;;;;;5017921;28;20068;-51
2023/03/08 13:53:41;;;;;;;294.42;226.65;;;;;;;;;;5074935;27;20376;-50
2023/03/08 13:56:06;;;;;;;10.02;4.60;;;;;;;;;;5060885;28;20424;-53
2023/03/08 13:58:34;;;;;;;9.55;5.00;;;;;;;;;;5062178;28;20025;-53
2023/03/08 14:01:31;;;;;;;11.20;5.63;;;;;;;;;;5061317;28;20056;-55
2023/03/08 14:04:00;;;;;;;12.77;6.40;;;;;;;;;;5046279;28;20128;-53
2023/03/08 14:06:29;;;;;;;9.63;5.28;;;;;;;;;;5037372;28;20124;-53
2023/03/08 14:09:01;;;;;;;11.80;5.82;;;;;;;;;;5039560;28;20043;-52
2023/03/08 14:11:36;;;;;;;22.48;10.50;;;;;;;;;;5040037;28;21221;-52
2023/03/08 14:14:04;;;;;;;19.73;5.35;;;;;;;;;;5035016;28;20033;-53
2023/03/08 14:16:30;;;;;;;13.15;5.82;;;;;;;;;;5039188;28;20025;-48
2023/03/08 14:18:57;;;;;;;10.40;4.75;;;;;;;;;;5021600;28;20052;-51
2023/03/08 14:21:26;;;;;;;8.07;4.63;;;;;;;;;;5038157;28;20033;-52
2023/03/08 14:23:59;;;;;;;13.55;4.80;;;;;;;;;;5040919;28;20467;-51
2023/03/08 14:26:24;;;;;;;20.65;5.55;;;;;;;;;;5037747;28;20233;-53
2023/03/08 14:29:00;;;;;;;10.55;4.90;;;;;;;;;;5047931;28;20115;-53